sensor_id;sensor_type;location;lat;lon;timestamp;pressure;altitude;pressure_sealevel;temperature;humidity
49583;BME280;36329;48.816;44.624;2023-12-14T00:02:01;102401;;;-7.8;71.1
49583;BME280;36329;48.816;44.624;2023-12-14T00:05:03;102398;;;-7.9;70.3
49583;BME280;36329;48.816;44.624;2023-12-14T00:08:05;102389;;;-7.9;70.4
49583;BME280;36329;48.816;44.624;2023-12-14T00:11:09;102402;;;-7.8;69.7
49583;BME280;36329;48.816;44.624;2023-12-14T00:14:12;102387;;;-7.8;70
49583;BME280;36329;48.816;44.624;2023-12-14T00:17:14;102395;;;-7.9;69.4
49583;BME280;36329;48.816;44.624;2023-12-14T00:20:16;102394;;;-7.9;70.2
49583;BME280;36329;48.816;44.624;2023-12-14T00:23:18;102391;;;-7.9;70.2
49583;BME280;36329;48.816;44.624;2023-12-14T00:26:21;102396;;;-8;71.2
49583;BME280;36329;48.816;44.624;2023-12-14T00:29:23;102393;;;-7.8;71
49583;BME280;36329;48.816;44.624;2023-12-14T00:32:26;102389;;;-7.9;72.3
49583;BME280;36329;48.816;44.624;2023-12-14T00:35:28;102385;;;-8.1;73.6
49583;BME280;36329;48.816;44.624;2023-12-14T00:38:30;102385;;;-8.3;74.9
49583;BME280;36329;48.816;44.624;2023-12-14T00:41:32;102382;;;-8.3;76
49583;BME280;36329;48.816;44.624;2023-12-14T00:44:34;102391;;;-8.4;77.7
49583;BME280;36329;48.816;44.624;2023-12-14T00:47:36;102382;;;-8.3;78
49583;BME280;36329;48.816;44.624;2023-12-14T00:50:39;102376;;;-8.1;77.8
49583;BME280;36329;48.816;44.624;2023-12-14T00:53:41;102378;;;-8.2;78.6
49583;BME280;36329;48.816;44.624;2023-12-14T00:56:43;102377;;;-8.2;79.3
49583;BME280;36329;48.816;44.624;2023-12-14T00:59:45;102363;;;-8.1;78.8
49583;BME280;36329;48.816;44.624;2023-12-14T01:02:47;102366;;;-8.1;78.5
49583;BME280;36329;48.816;44.624;2023-12-14T01:05:49;102364;;;-8;78.9
49583;BME280;36329;48.816;44.624;2023-12-14T01:08:52;102365;;;-7.9;79.4
49583;BME280;36329;48.816;44.624;2023-12-14T01:11:54;102374;;;-8;79.3
49583;BME280;36329;48.816;44.624;2023-12-14T01:14:56;102368;;;-8;79.2
49583;BME280;36329;48.816;44.624;2023-12-14T01:17:58;102367;;;-8;79.5
49583;BME280;36329;48.816;44.624;2023-12-14T01:21:01;102364;;;-8;79.2
49583;BME280;36329;48.816;44.624;2023-12-14T01:24:03;102357;;;-8.1;79.5
49583;BME280;36329;48.816;44.624;2023-12-14T01:27:06;102366;;;-7.9;79
49583;BME280;36329;48.816;44.624;2023-12-14T01:30:10;102355;;;-8;79.8
49583;BME280;36329;48.816;44.624;2023-12-14T01:33:12;102357;;;-8;79.7
49583;BME280;36329;48.816;44.624;2023-12-14T01:36:20;102372;;;-8.1;80.1
49583;BME280;36329;48.816;44.624;2023-12-14T01:39:23;102376;;;-7.9;80.5
49583;BME280;36329;48.816;44.624;2023-12-14T01:42:25;102379;;;-8.1;79.7
49583;BME280;36329;48.816;44.624;2023-12-14T01:45:27;102367;;;-8.2;80.7
49583;BME280;36329;48.816;44.624;2023-12-14T01:48:29;102388;;;-8.2;81.4
49583;BME280;36329;48.816;44.624;2023-12-14T01:51:31;102382;;;-7.9;80.5
49583;BME280;36329;48.816;44.624;2023-12-14T01:54:34;102376;;;-8.1;80.7
49583;BME280;36329;48.816;44.624;2023-12-14T01:57:37;102378;;;-8.2;81.9
49583;BME280;36329;48.816;44.624;2023-12-14T02:00:42;102377;;;-8.2;81
49583;BME280;36329;48.816;44.624;2023-12-14T02:03:46;102387;;;-8.1;81.9
49583;BME280;36329;48.816;44.624;2023-12-14T02:06:48;102392;;;-8.2;81.9
49583;BME280;36329;48.816;44.624;2023-12-14T02:09:51;102390;;;-8.1;82.1
49583;BME280;36329;48.816;44.624;2023-12-14T02:12:53;102390;;;-8;82.4
49583;BME280;36329;48.816;44.624;2023-12-14T02:15:55;102401;;;-7.8;81
49583;BME280;36329;48.816;44.624;2023-12-14T02:18:57;102396;;;-7.8;80.5
49583;BME280;36329;48.816;44.624;2023-12-14T02:22:00;102399;;;-8;80.6
49583;BME280;36329;48.816;44.624;2023-12-14T02:25:02;102389;;;-7.9;80.9
49583;BME280;36329;48.816;44.624;2023-12-14T02:28:05;102407.99;;;-8;79.3
49583;BME280;36329;48.816;44.624;2023-12-14T02:31:07;102400;;;-8;80
49583;BME280;36329;48.816;44.624;2023-12-14T02:34:10;102401;;;-8.1;80.8
49583;BME280;36329;48.816;44.624;2023-12-14T02:37:12;102398;;;-7.9;80.2
49583;BME280;36329;48.816;44.624;2023-12-14T02:40:14;102400;;;-8;79.8
49583;BME280;36329;48.816;44.624;2023-12-14T02:43:16;102395;;;-8.1;80.3
49583;BME280;36329;48.816;44.624;2023-12-14T02:46:19;102384;;;-7.9;80.2
49583;BME280;36329;48.816;44.624;2023-12-14T02:49:21;102401;;;-8.1;79.6
49583;BME280;36329;48.816;44.624;2023-12-14T02:52:23;102401;;;-8.2;79.8
49583;BME280;36329;48.816;44.624;2023-12-14T02:55:25;102390;;;-8.2;80.5
49583;BME280;36329;48.816;44.624;2023-12-14T02:58:28;102397;;;-8.1;80.4
49583;BME280;36329;48.816;44.624;2023-12-14T03:01:30;102398;;;-7.9;79.2
49583;BME280;36329;48.816;44.624;2023-12-14T03:04:33;102403;;;-7.8;78.8
49583;BME280;36329;48.816;44.624;2023-12-14T03:07:35;102399;;;-8;79.3
49583;BME280;36329;48.816;44.624;2023-12-14T03:10:37;102400;;;-8.1;79.7
49583;BME280;36329;48.816;44.624;2023-12-14T03:13:39;102402;;;-7.8;78.8
49583;BME280;36329;48.816;44.624;2023-12-14T03:16:42;102404;;;-7.9;78.5
49583;BME280;36329;48.816;44.624;2023-12-14T03:19:44;102396;;;-7.8;79.1
49583;BME280;36329;48.816;44.624;2023-12-14T03:22:47;102409;;;-8;78.2
49583;BME280;36329;48.816;44.624;2023-12-14T03:25:49;102400;;;-8;79
49583;BME280;36329;48.816;44.624;2023-12-14T03:28:51;102406.99;;;-8.1;79.5
49583;BME280;36329;48.816;44.624;2023-12-14T03:31:53;102406.01;;;-8;78.7
49583;BME280;36329;48.816;44.624;2023-12-14T03:34:55;102398;;;-8;79.2
49583;BME280;36329;48.816;44.624;2023-12-14T03:37:58;102407.99;;;-8;79.4
49583;BME280;36329;48.816;44.624;2023-12-14T03:41:00;102413;;;-8;80
49583;BME280;36329;48.816;44.624;2023-12-14T03:44:02;102424;;;-8;80
49583;BME280;36329;48.816;44.624;2023-12-14T03:47:04;102415;;;-7.8;80
49583;BME280;36329;48.816;44.624;2023-12-14T03:50:07;102396;;;-7.7;80.2
49583;BME280;36329;48.816;44.624;2023-12-14T03:53:13;102398;;;-7.6;80.3
49583;BME280;36329;48.816;44.624;2023-12-14T03:56:16;102392;;;-7.8;80.5
49583;BME280;36329;48.816;44.624;2023-12-14T03:59:18;102400;;;-7.8;81.1
49583;BME280;36329;48.816;44.624;2023-12-14T04:02:20;102413;;;-7.8;81.7
49583;BME280;36329;48.816;44.624;2023-12-14T04:05:23;102416;;;-7.7;81.5
49583;BME280;36329;48.816;44.624;2023-12-14T04:08:25;102428;;;-7.6;81.8
49583;BME280;36329;48.816;44.624;2023-12-14T04:11:27;102412;;;-8.1;82.9
49583;BME280;36329;48.816;44.624;2023-12-14T04:14:29;102412;;;-7.8;83.6
49583;BME280;36329;48.816;44.624;2023-12-14T04:17:32;102418.99;;;-7.8;82.7
49583;BME280;36329;48.816;44.624;2023-12-14T04:20:34;102418.99;;;-7.8;82.3
49583;BME280;36329;48.816;44.624;2023-12-14T04:23:36;102412;;;-7.6;81.8
49583;BME280;36329;48.816;44.624;2023-12-14T04:26:39;102412;;;-7.7;82
49583;BME280;36329;48.816;44.624;2023-12-14T04:29:42;102410;;;-7.8;81.7
49583;BME280;36329;48.816;44.624;2023-12-14T04:32:44;102425;;;-7.6;81
49583;BME280;36329;48.816;44.624;2023-12-14T04:35:47;102422;;;-7.6;80.5
49583;BME280;36329;48.816;44.624;2023-12-14T04:38:50;102426;;;-7.6;80.2
49583;BME280;36329;48.816;44.624;2023-12-14T04:41:53;102427;;;-7.4;79.8
49583;BME280;36329;48.816;44.624;2023-12-14T04:44:56;102434;;;-7.5;78.1
49583;BME280;36329;48.816;44.624;2023-12-14T04:47:59;102421;;;-7.6;78.6
49583;BME280;36329;48.816;44.624;2023-12-14T04:51:01;102434;;;-7.4;77.1
49583;BME280;36329;48.816;44.624;2023-12-14T04:54:05;102431.99;;;-7.5;76.1
49583;BME280;36329;48.816;44.624;2023-12-14T04:57:07;102426;;;-7.7;76.7
49583;BME280;36329;48.816;44.624;2023-12-14T05:00:12;102418.99;;;-7.3;76.5
49583;BME280;36329;48.816;44.624;2023-12-14T05:03:14;102417.01;;;-7.3;75.5
49583;BME280;36329;48.816;44.624;2023-12-14T05:06:16;102428;;;-7.6;74.5
49583;BME280;36329;48.816;44.624;2023-12-14T05:09:19;102432.99;;;-7.4;73.6
49583;BME280;36329;48.816;44.624;2023-12-14T05:12:21;102431.99;;;-7.4;73.3
49583;BME280;36329;48.816;44.624;2023-12-14T05:15:23;102425;;;-7.5;72.8
49583;BME280;36329;48.816;44.624;2023-12-14T05:18:25;102427;;;-7.3;71.3
49583;BME280;36329;48.816;44.624;2023-12-14T05:21:28;102446;;;-7.2;71.1
49583;BME280;36329;48.816;44.624;2023-12-14T05:24:30;102449;;;-7.3;70.4
49583;BME280;36329;48.816;44.624;2023-12-14T05:27:32;102434;;;-7.3;70.1
49583;BME280;36329;48.816;44.624;2023-12-14T05:30:34;102427;;;-7.3;69.4
49583;BME280;36329;48.816;44.624;2023-12-14T05:33:37;102424;;;-7.3;70.2
49583;BME280;36329;48.816;44.624;2023-12-14T05:36:40;102431.99;;;-7.5;68.6
49583;BME280;36329;48.816;44.624;2023-12-14T05:39:42;102431.99;;;-7.6;69.1
49583;BME280;36329;48.816;44.624;2023-12-14T05:42:44;102454;;;-7.3;68.2
49583;BME280;36329;48.816;44.624;2023-12-14T05:45:47;102457.99;;;-7.2;68
49583;BME280;36329;48.816;44.624;2023-12-14T05:48:49;102467.01;;;-7.4;67.6
49583;BME280;36329;48.816;44.624;2023-12-14T05:51:51;102468.01;;;-7.2;71.1
49583;BME280;36329;48.816;44.624;2023-12-14T05:54:54;102468.01;;;-6.5;68.4
49583;BME280;36329;48.816;44.624;2023-12-14T05:57:56;102461;;;-6.6;65
49583;BME280;36329;48.816;44.624;2023-12-14T06:00:59;102468.01;;;-7;65.3
49583;BME280;36329;48.816;44.624;2023-12-14T06:04:01;102464;;;-7;66.1
49583;BME280;36329;48.816;44.624;2023-12-14T06:07:03;102469.99;;;-7.1;65
49583;BME280;36329;48.816;44.624;2023-12-14T06:10:06;102468.01;;;-7.1;64.3
49583;BME280;36329;48.816;44.624;2023-12-14T06:13:08;102465;;;-7.3;65.1
49583;BME280;36329;48.816;44.624;2023-12-14T06:16:10;102459;;;-7.3;65.8
49583;BME280;36329;48.816;44.624;2023-12-14T06:19:13;102461;;;-7.1;65.4
49583;BME280;36329;48.816;44.624;2023-12-14T06:22:15;102467.01;;;-6.9;64.7
49583;BME280;36329;48.816;44.624;2023-12-14T06:25:17;102454;;;-6.9;63.9
49583;BME280;36329;48.816;44.624;2023-12-14T06:28:20;102448;;;-7;63.8
49583;BME280;36329;48.816;44.624;2023-12-14T06:31:22;102431.99;;;-6.9;63.3
49583;BME280;36329;48.816;44.624;2023-12-14T06:34:24;102430.01;;;-6.9;63.2
49583;BME280;36329;48.816;44.624;2023-12-14T06:37:26;102434;;;-6.8;62.6
49583;BME280;36329;48.816;44.624;2023-12-14T06:40:28;102444.99;;;-6.9;63
49583;BME280;36329;48.816;44.624;2023-12-14T06:43:31;102441;;;-6.8;63.7
49583;BME280;36329;48.816;44.624;2023-12-14T06:46:33;102437;;;-6.6;62.8
49583;BME280;36329;48.816;44.624;2023-12-14T06:49:36;102430.01;;;-6.6;61.9
49583;BME280;36329;48.816;44.624;2023-12-14T06:52:38;102421;;;-6.6;62.2
49583;BME280;36329;48.816;44.624;2023-12-14T06:55:41;102424;;;-6.4;62.1
49583;BME280;36329;48.816;44.624;2023-12-14T06:58:44;102424;;;-6.2;61.5
49583;BME280;36329;48.816;44.624;2023-12-14T07:01:47;102419.99;;;-6.1;61.1
49583;BME280;36329;48.816;44.624;2023-12-14T07:04:49;102421;;;-6.1;60.8
49583;BME280;36329;48.816;44.624;2023-12-14T07:07:51;102428;;;-6;60.8
49583;BME280;36329;48.816;44.624;2023-12-14T07:10:53;102444.99;;;-5.8;59.5
49583;BME280;36329;48.816;44.624;2023-12-14T07:13:56;102434;;;-5.8;59.4
49583;BME280;36329;48.816;44.624;2023-12-14T07:16:58;102444.99;;;-6.2;61
49583;BME280;36329;48.816;44.624;2023-12-14T07:20:00;102443.01;;;-5.9;60
49583;BME280;36329;48.816;44.624;2023-12-14T07:23:02;102443.01;;;-5.9;60.8
49583;BME280;36329;48.816;44.624;2023-12-14T07:26:05;102436;;;-5.8;60.8
49583;BME280;36329;48.816;44.624;2023-12-14T07:29:07;102439;;;-5.8;60.7
49583;BME280;36329;48.816;44.624;2023-12-14T07:32:09;102424;;;-5.7;60.5
49583;BME280;36329;48.816;44.624;2023-12-14T07:35:11;102421;;;-5.8;60.1
49583;BME280;36329;48.816;44.624;2023-12-14T07:38:14;102419.99;;;-5.9;61.1
49583;BME280;36329;48.816;44.624;2023-12-14T07:41:16;102421;;;-5.9;60.7
49583;BME280;36329;48.816;44.624;2023-12-14T07:44:18;102417.01;;;-5.7;60
49583;BME280;36329;48.816;44.624;2023-12-14T07:47:20;102412;;;-5.8;60.6
49583;BME280;36329;48.816;44.624;2023-12-14T07:50:23;102411;;;-5.7;60
49583;BME280;36329;48.816;44.624;2023-12-14T07:53:25;102414;;;-5.9;59.7
49583;BME280;36329;48.816;44.624;2023-12-14T07:56:28;102414;;;-5.6;59.5
49583;BME280;36329;48.816;44.624;2023-12-14T07:59:31;102404;;;-5.2;58.4
49583;BME280;36329;48.816;44.624;2023-12-14T08:02:33;102404;;;-5.8;58.9
49583;BME280;36329;48.816;44.624;2023-12-14T08:05:35;102398;;;-6.1;60.2
49583;BME280;36329;48.816;44.624;2023-12-14T08:08:37;102407.99;;;-5.5;59.5
49583;BME280;36329;48.816;44.624;2023-12-14T08:11:39;102404;;;-4.8;56.9
49583;BME280;36329;48.816;44.624;2023-12-14T08:14:42;102405.01;;;-4.5;56
49583;BME280;36329;48.816;44.624;2023-12-14T08:17:45;102399;;;-3.8;52.3
49583;BME280;36329;48.816;44.624;2023-12-14T08:20:47;102409;;;-2.9;50.7
49583;BME280;36329;48.816;44.624;2023-12-14T08:23:49;102424;;;-4.1;51.7
49583;BME280;36329;48.816;44.624;2023-12-14T08:26:52;102414;;;-3.6;51
49583;BME280;36329;48.816;44.624;2023-12-14T08:29:54;102425;;;-3.4;50.4
49583;BME280;36329;48.816;44.624;2023-12-14T08:32:56;102429;;;-3.7;50
49583;BME280;36329;48.816;44.624;2023-12-14T08:35:58;102426;;;-3.2;50.7
49583;BME280;36329;48.816;44.624;2023-12-14T08:39:01;102428;;;-2.3;48
49583;BME280;36329;48.816;44.624;2023-12-14T08:42:03;102421;;;-1.7;46.6
49583;BME280;36329;48.816;44.624;2023-12-14T08:45:07;102419.99;;;-1.4;44.9
49583;BME280;36329;48.816;44.624;2023-12-14T08:48:10;102416;;;-0.1;42.3
49583;BME280;36329;48.816;44.624;2023-12-14T08:51:12;102407.99;;;0;41.2
49583;BME280;36329;48.816;44.624;2023-12-14T08:54:15;102410;;;-0.1;41.3
49583;BME280;36329;48.816;44.624;2023-12-14T08:57:17;102412;;;0.4;40.5
49583;BME280;36329;48.816;44.624;2023-12-14T09:00:20;102425;;;0.1;40.1
49583;BME280;36329;48.816;44.624;2023-12-14T09:03:22;102427;;;-0.1;40.3
49583;BME280;36329;48.816;44.624;2023-12-14T09:06:25;102427;;;0.2;40
49583;BME280;36329;48.816;44.624;2023-12-14T09:09:28;102422;;;-0.9;41.5
49583;BME280;36329;48.816;44.624;2023-12-14T09:12:30;102418.99;;;-0.7;41.9
49583;BME280;36329;48.816;44.624;2023-12-14T09:15:32;102410;;;0.3;40.5
49583;BME280;36329;48.816;44.624;2023-12-14T09:18:35;102404;;;0.7;39
49583;BME280;36329;48.816;44.624;2023-12-14T09:21:37;102406.01;;;0.6;38.8
49583;BME280;36329;48.816;44.624;2023-12-14T09:24:40;102409;;;1.6;37.9
49583;BME280;36329;48.816;44.624;2023-12-14T09:27:42;102406.99;;;1.3;37.6
49583;BME280;36329;48.816;44.624;2023-12-14T09:30:44;102394;;;1.2;37.8
49583;BME280;36329;48.816;44.624;2023-12-14T09:33:47;102396;;;0.1;38.7
49583;BME280;36329;48.816;44.624;2023-12-14T09:36:49;102390;;;0.4;39.7
49583;BME280;36329;48.816;44.624;2023-12-14T09:39:51;102384;;;-0.1;40
49583;BME280;36329;48.816;44.624;2023-12-14T09:42:55;102380;;;0.3;39.8
49583;BME280;36329;48.816;44.624;2023-12-14T09:45:58;102385;;;1;38.3
49583;BME280;36329;48.816;44.624;2023-12-14T09:49:01;102385;;;0.5;38
49583;BME280;36329;48.816;44.624;2023-12-14T09:52:03;102384;;;0.7;38.2
49583;BME280;36329;48.816;44.624;2023-12-14T09:55:06;102383;;;0.9;37.4
49583;BME280;36329;48.816;44.624;2023-12-14T09:58:09;102392;;;1.3;37.8
49583;BME280;36329;48.816;44.624;2023-12-14T10:01:27;102393;;;1.3;37.1
49583;BME280;36329;48.816;44.624;2023-12-14T10:04:33;102381;;;0.8;38.1
49583;BME280;36329;48.816;44.624;2023-12-14T10:07:38;102378;;;0.6;37.3
49583;BME280;36329;48.816;44.624;2023-12-14T10:10:43;102378;;;1.1;37.9
49583;BME280;36329;48.816;44.624;2023-12-14T10:13:46;102378;;;1.1;36.5
49583;BME280;36329;48.816;44.624;2023-12-14T10:16:49;102373;;;0.8;37.5
49583;BME280;36329;48.816;44.624;2023-12-14T10:19:52;102364;;;0.1;38.8
49583;BME280;36329;48.816;44.624;2023-12-14T10:22:54;102377;;;-1.1;40.6
49583;BME280;36329;48.816;44.624;2023-12-14T10:25:57;102362;;;-1.9;42.5
49583;BME280;36329;48.816;44.624;2023-12-14T10:28:59;102368;;;-2;42.9
49583;BME280;36329;48.816;44.624;2023-12-14T10:32:03;102369;;;-1.4;42.4
49583;BME280;36329;48.816;44.624;2023-12-14T10:35:06;102376;;;-0.4;40.8
49583;BME280;36329;48.816;44.624;2023-12-14T10:38:08;102369;;;-0.5;40.3
49583;BME280;36329;48.816;44.624;2023-12-14T10:41:13;102361;;;-0.6;40.5
49583;BME280;36329;48.816;44.624;2023-12-14T10:44:16;102363;;;-1.6;41.5
49583;BME280;36329;48.816;44.624;2023-12-14T10:47:19;102362;;;-3.1;45.3
49583;BME280;36329;48.816;44.624;2023-12-14T10:50:22;102354;;;-3;45.6
49583;BME280;36329;48.816;44.624;2023-12-14T10:53:24;102351;;;-3.2;46.4
49583;BME280;36329;48.816;44.624;2023-12-14T10:56:26;102342;;;-3.2;47.1
49583;BME280;36329;48.816;44.624;2023-12-14T10:59:30;102343;;;-2.8;46.7
49583;BME280;36329;48.816;44.624;2023-12-14T11:02:40;102347;;;-3.3;46.6
49583;BME280;36329;48.816;44.624;2023-12-14T11:05:43;102348;;;-3.6;47.9
49583;BME280;36329;48.816;44.624;2023-12-14T11:08:45;102341;;;-3.7;48.1
49583;BME280;36329;48.816;44.624;2023-12-14T11:11:56;102341;;;-4;48.6
49583;BME280;36329;48.816;44.624;2023-12-14T11:14:59;102329;;;-4.2;49.1
49583;BME280;36329;48.816;44.624;2023-12-14T11:18:21;102323;;;-4.1;49.5
49583;BME280;36329;48.816;44.624;2023-12-14T11:21:26;102334;;;-3.8;48.8
49583;BME280;36329;48.816;44.624;2023-12-14T11:24:28;102334;;;-4.2;49.7
49583;BME280;36329;48.816;44.624;2023-12-14T11:27:30;102334;;;-4.5;50.4
49583;BME280;36329;48.816;44.624;2023-12-14T11:30:33;102321;;;-4.2;50.7
49583;BME280;36329;48.816;44.624;2023-12-14T11:33:36;102309;;;-4;49.8
49583;BME280;36329;48.816;44.624;2023-12-14T11:36:39;102318;;;-3.8;49
49583;BME280;36329;48.816;44.624;2023-12-14T11:39:41;102327;;;-3.5;48.7
49583;BME280;36329;48.816;44.624;2023-12-14T11:42:43;102314;;;-3.5;48.2
49583;BME280;36329;48.816;44.624;2023-12-14T11:45:45;102321;;;-3.5;48.5
49583;BME280;36329;48.816;44.624;2023-12-14T11:48:48;102295;;;-4;49.9
49583;BME280;36329;48.816;44.624;2023-12-14T11:51:51;102291;;;-4.1;50.6
49583;BME280;36329;48.816;44.624;2023-12-14T11:54:54;102293;;;-4.4;50.5
49583;BME280;36329;48.816;44.624;2023-12-14T11:57:57;102294;;;-4.7;51.1
49583;BME280;36329;48.816;44.624;2023-12-14T12:01:12;102297;;;-4.9;52
49583;BME280;36329;48.816;44.624;2023-12-14T12:04:15;102295;;;-4.9;51.7
49583;BME280;36329;48.816;44.624;2023-12-14T12:07:17;102296;;;-5.1;52.1
49583;BME280;36329;48.816;44.624;2023-12-14T12:10:20;102314;;;-5;52.7
49583;BME280;36329;48.816;44.624;2023-12-14T12:13:22;102317;;;-5.2;51.8
49583;BME280;36329;48.816;44.624;2023-12-14T12:16:24;102316;;;-5;51.3
49583;BME280;36329;48.816;44.624;2023-12-14T12:19:26;102323;;;-5.1;50.9
49583;BME280;36329;48.816;44.624;2023-12-14T12:22:29;102323;;;-5.1;51.6
49583;BME280;36329;48.816;44.624;2023-12-14T12:25:31;102321;;;-5.1;51.3
49583;BME280;36329;48.816;44.624;2023-12-14T12:28:36;102314;;;-5.4;51.2
49583;BME280;36329;48.816;44.624;2023-12-14T12:31:39;102319;;;-5.6;51.9
49583;BME280;36329;48.816;44.624;2023-12-14T12:34:41;102321;;;-5.8;52.7
49583;BME280;36329;48.816;44.624;2023-12-14T12:37:43;102321;;;-5.6;52.7
49583;BME280;36329;48.816;44.624;2023-12-14T12:40:47;102326;;;-5.6;51.8
49583;BME280;36329;48.816;44.624;2023-12-14T12:43:49;102324;;;-5.8;52.9
49583;BME280;36329;48.816;44.624;2023-12-14T12:46:53;102337;;;-5.6;52.9
49583;BME280;36329;48.816;44.624;2023-12-14T12:49:55;102343;;;-5.7;52.2
49583;BME280;36329;48.816;44.624;2023-12-14T12:52:58;102347;;;-6;53
49583;BME280;36329;48.816;44.624;2023-12-14T12:56:00;102350;;;-5.8;53.1
49583;BME280;36329;48.816;44.624;2023-12-14T12:59:02;102360;;;-5.9;52.7
49583;BME280;36329;48.816;44.624;2023-12-14T13:02:04;102361;;;-6.1;53.5
49583;BME280;36329;48.816;44.624;2023-12-14T13:05:09;102365;;;-5.9;53.8
49583;BME280;36329;48.816;44.624;2023-12-14T13:08:12;102369;;;-5.9;52.7
49583;BME280;36329;48.816;44.624;2023-12-14T13:11:14;102372;;;-6;53.5
49583;BME280;36329;48.816;44.624;2023-12-14T13:14:17;102377;;;-5.8;53.1
49583;BME280;36329;48.816;44.624;2023-12-14T13:17:19;102388;;;-5.9;53.9
49583;BME280;36329;48.816;44.624;2023-12-14T13:20:22;102396;;;-5.9;53.8
49583;BME280;36329;48.816;44.624;2023-12-14T13:23:24;102399;;;-6.1;53.8
49583;BME280;36329;48.816;44.624;2023-12-14T13:26:26;102395;;;-6.2;53.7
49583;BME280;36329;48.816;44.624;2023-12-14T13:29:28;102403;;;-6.2;54.3
49583;BME280;36329;48.816;44.624;2023-12-14T13:32:30;102394;;;-6.3;54.9
49583;BME280;36329;48.816;44.624;2023-12-14T13:35:32;102413;;;-6.2;54.2
49583;BME280;36329;48.816;44.624;2023-12-14T13:38:35;102418.99;;;-6.1;54.4
49583;BME280;36329;48.816;44.624;2023-12-14T13:41:37;102423;;;-6.2;54.8
49583;BME280;36329;48.816;44.624;2023-12-14T13:44:39;102418.01;;;-6.2;55.1
49583;BME280;36329;48.816;44.624;2023-12-14T13:47:41;102427;;;-6.3;55.4
49583;BME280;36329;48.816;44.624;2023-12-14T13:50:44;102431.01;;;-6.2;54.9
49583;BME280;36329;48.816;44.624;2023-12-14T13:53:46;102434;;;-6.3;55.3
49583;BME280;36329;48.816;44.624;2023-12-14T13:56:48;102421;;;-6.3;55.5
49583;BME280;36329;48.816;44.624;2023-12-14T13:59:51;102431.01;;;-6.3;55.6
49583;BME280;36329;48.816;44.624;2023-12-14T14:02:53;102435;;;-6.2;55.5
49583;BME280;36329;48.816;44.624;2023-12-14T14:05:56;102430.01;;;-6.1;55.8
49583;BME280;36329;48.816;44.624;2023-12-14T14:08:59;102439;;;-6;55.6
49583;BME280;36329;48.816;44.624;2023-12-14T14:12:02;102431.99;;;-6.1;55.8
49583;BME280;36329;48.816;44.624;2023-12-14T14:15:05;102429;;;-6.1;55.7
49583;BME280;36329;48.816;44.624;2023-12-14T14:18:08;102431.99;;;-6;55.6
49583;BME280;36329;48.816;44.624;2023-12-14T14:21:11;102423;;;-6.1;55.2
49583;BME280;36329;48.816;44.624;2023-12-14T14:24:14;102421;;;-5.9;55.5
49583;BME280;36329;48.816;44.624;2023-12-14T14:27:16;102422;;;-6.3;55.8
49583;BME280;36329;48.816;44.624;2023-12-14T14:30:18;102428;;;-6.3;56.4
49583;BME280;36329;48.816;44.624;2023-12-14T14:33:21;102427;;;-6.3;56.1
49583;BME280;36329;48.816;44.624;2023-12-14T14:36:23;102425;;;-6.3;56.7
49583;BME280;36329;48.816;44.624;2023-12-14T14:39:25;102416;;;-6.1;56.4
49583;BME280;36329;48.816;44.624;2023-12-14T14:42:28;102405.01;;;-6;55.8
49583;BME280;36329;48.816;44.624;2023-12-14T14:45:30;102398;;;-6.1;55.8
49583;BME280;36329;48.816;44.624;2023-12-14T14:48:38;102394;;;-6;55.6
49583;BME280;36329;48.816;44.624;2023-12-14T14:51:41;102395;;;-5.9;55.4
49583;BME280;36329;48.816;44.624;2023-12-14T14:54:43;102398;;;-6.1;55.9
49583;BME280;36329;48.816;44.624;2023-12-14T14:57:46;102394;;;-6.3;56.1
49583;BME280;36329;48.816;44.624;2023-12-14T15:00:48;102380;;;-6.3;56.3
49583;BME280;36329;48.816;44.624;2023-12-14T15:03:50;102377;;;-6.6;57.2
49583;BME280;36329;48.816;44.624;2023-12-14T15:06:53;102373;;;-6.6;57.3
49583;BME280;36329;48.816;44.624;2023-12-14T15:09:55;102374;;;-6.6;57.2
49583;BME280;36329;48.816;44.624;2023-12-14T15:12:57;102377;;;-6.7;57.9
49583;BME280;36329;48.816;44.624;2023-12-14T15:15:59;102391;;;-6.8;58.4
49583;BME280;36329;48.816;44.624;2023-12-14T15:19:02;102399;;;-6.7;57.6
49583;BME280;36329;48.816;44.624;2023-12-14T15:22:04;102389;;;-6.7;57.6
49583;BME280;36329;48.816;44.624;2023-12-14T15:25:07;102388;;;-6.9;57.9
49583;BME280;36329;48.816;44.624;2023-12-14T15:28:09;102382;;;-7;58
49583;BME280;36329;48.816;44.624;2023-12-14T15:31:11;102382;;;-6.9;57.8
49583;BME280;36329;48.816;44.624;2023-12-14T15:34:13;102385;;;-6.8;58.2
49583;BME280;36329;48.816;44.624;2023-12-14T15:37:16;102392;;;-6.9;57.1
49583;BME280;36329;48.816;44.624;2023-12-14T15:40:18;102397;;;-7.3;57.8
49583;BME280;36329;48.816;44.624;2023-12-14T15:43:20;102399;;;-7.2;57.7
49583;BME280;36329;48.816;44.624;2023-12-14T15:46:23;102388;;;-7.2;57.6
49583;BME280;36329;48.816;44.624;2023-12-14T15:49:26;102385;;;-7;57
49583;BME280;36329;48.816;44.624;2023-12-14T15:52:28;102379;;;-7.1;56.6
49583;BME280;36329;48.816;44.624;2023-12-14T15:55:30;102385;;;-7.3;56.6
49583;BME280;36329;48.816;44.624;2023-12-14T15:58:33;102386;;;-7.3;57.3
49583;BME280;36329;48.816;44.624;2023-12-14T16:01:36;102409;;;-7.4;56.3
49583;BME280;36329;48.816;44.624;2023-12-14T16:04:38;102396;;;-7.4;56.9
49583;BME280;36329;48.816;44.624;2023-12-14T16:07:40;102402;;;-7.4;56.9
49583;BME280;36329;48.816;44.624;2023-12-14T16:10:43;102389;;;-7.4;56.2
49583;BME280;36329;48.816;44.624;2023-12-14T16:13:45;102388;;;-7.5;56.5
49583;BME280;36329;48.816;44.624;2023-12-14T16:16:47;102392;;;-7.5;56.7
49583;BME280;36329;48.816;44.624;2023-12-14T16:19:49;102380;;;-7.4;56.4
49583;BME280;36329;48.816;44.624;2023-12-14T16:22:53;102379;;;-7.4;56.3
49583;BME280;36329;48.816;44.624;2023-12-14T16:25:56;102383;;;-7.5;56.4
49583;BME280;36329;48.816;44.624;2023-12-14T16:28:58;102391;;;-7.5;56.5
49583;BME280;36329;48.816;44.624;2023-12-14T16:32:02;102384;;;-7.6;56.9
49583;BME280;36329;48.816;44.624;2023-12-14T16:35:05;102378;;;-7.6;57.2
49583;BME280;36329;48.816;44.624;2023-12-14T16:38:07;102370;;;-7.6;57.2
49583;BME280;36329;48.816;44.624;2023-12-14T16:41:10;102376;;;-7.6;57.3
49583;BME280;36329;48.816;44.624;2023-12-14T16:44:12;102357;;;-8;57.7
49583;BME280;36329;48.816;44.624;2023-12-14T16:47:14;102350;;;-7.8;57.7
49583;BME280;36329;48.816;44.624;2023-12-14T16:50:17;102354;;;-7.9;58.2